Time;durP1;ratioP1;P1;durP2;ratioP2;P2;SDS_P1;SDS_P2;PMS_P1;PMS_P2;Temp;Humidity;BMP_temperature;BMP_pressure;BME280_temperature;BME280_humidity;BME280_pressure;Samples;Min_cycle;Max_cycle;Signal;HPM_P1;HPM_P2
2024/02/29 00:02:24;;;;;;;9.63;5.38;;;;;;;4.14;100.00;100618.69;4985985;28;20108;-74
2024/02/29 00:04:50;;;;;;;15.77;6.07;;;;;;;4.09;100.00;100603.13;4986273;28;20050;-73
2024/02/29 00:07:15;;;;;;;5.68;4.10;;;;;;;4.20;100.00;100611.09;4985604;28;20046;-73
2024/02/29 00:09:40;;;;;;;9.57;4.15;;;;;;;4.19;100.00;100607.66;4968702;28;20038;-75
2024/02/29 00:12:06;;;;;;;11.88;6.57;;;;;;;4.19;100.00;100602.50;4985981;28;20027;-74
2024/02/29 00:14:32;;;;;;;8.60;4.65;;;;;;;4.14;100.00;100596.41;4986083;28;20476;-74
2024/02/29 00:17:00;;;;;;;12.45;4.72;;;;;;;4.20;100.00;100600.81;4968864;28;20026;-73
2024/02/29 00:19:25;;;;;;;7.30;4.68;;;;;;;4.24;100.00;100597.47;4986096;28;20023;-75
2024/02/29 00:21:50;;;;;;;10.57;6.85;;;;;;;4.19;100.00;100587.09;4985894;28;20037;-75
2024/02/29 00:24:16;;;;;;;4.05;3.05;;;;;;;4.21;100.00;100590.56;4984913;28;20033;-74
2024/02/29 00:26:41;;;;;;;5.22;2.90;;;;;;;4.23;100.00;100593.16;4985992;28;20034;-74
2024/02/29 00:29:07;;;;;;;7.28;4.82;;;;;;;4.29;100.00;100580.44;4985941;28;20033;-75
2024/02/29 00:31:33;;;;;;;4.70;4.22;;;;;;;4.31;100.00;100576.16;4985644;28;20031;-74
2024/02/29 00:33:59;;;;;;;19.95;5.93;;;;;;;4.27;99.78;100563.22;5000531;28;20023;-75
2024/02/29 00:36:24;;;;;;;9.38;4.72;;;;;;;4.31;99.87;100571.03;4986026;28;20383;-74
2024/02/29 00:38:50;;;;;;;7.53;2.88;;;;;;;4.37;99.30;100572.88;4968449;28;20019;-75
2024/02/29 00:41:15;;;;;;;8.68;4.53;;;;;;;4.32;99.27;100559.94;4985760;28;20031;-73
2024/02/29 00:43:42;;;;;;;6.82;5.00;;;;;;;4.39;99.21;100567.75;4986843;28;20031;-74
2024/02/29 00:46:07;;;;;;;7.47;4.70;;;;;;;4.38;98.79;100564.31;5004599;28;20033;-74
2024/02/29 00:48:32;;;;;;;5.38;3.55;;;;;;;4.41;98.94;100569.50;4989433;28;20035;-73
2024/02/29 00:50:58;;;;;;;4.30;3.45;;;;;;;4.39;98.67;100568.66;4972048;28;20042;-72
2024/02/29 00:53:23;;;;;;;12.65;3.05;;;;;;;4.41;98.60;100558.38;4989514;28;20027;-73
2024/02/29 00:55:48;;;;;;;8.82;3.58;;;;;;;4.51;97.15;100556.84;5004339;28;20035;-73
2024/02/29 00:58:14;;;;;;;9.95;4.57;;;;;;;4.44;97.34;100555.88;4989231;28;20105;-73
2024/02/29 01:00:40;;;;;;;6.95;2.33;;;;;;;4.41;97.90;100551.53;4989656;28;20027;-73
2024/02/29 01:03:05;;;;;;;9.48;4.20;;;;;;;4.42;97.39;100532.72;4989178;28;20019;-72
2024/02/29 01:05:30;;;;;;;7.85;4.25;;;;;;;4.45;97.26;100537.03;4971425;28;20066;-72
2024/02/29 01:07:56;;;;;;;20.05;5.00;;;;;;;4.46;97.65;100529.34;5004055;28;20046;-72
2024/02/29 01:10:22;;;;;;;5.53;2.50;;;;;;;4.44;97.59;100519.88;4989554;28;20053;-73
2024/02/29 01:12:48;;;;;;;1.77;1.67;;;;;;;4.50;96.70;100514.84;4996386;28;20027;-73
2024/02/29 01:15:13;;;;;;;5.13;3.95;;;;;;;4.43;96.80;100502.69;4973974;28;20019;-72
2024/02/29 01:17:43;;;;;;;17.73;4.57;;;;;;;4.47;96.33;100514.81;4989526;28;20050;-73
2024/02/29 01:20:09;;;;;;;3.88;3.50;;;;;;;4.45;96.42;100512.19;4971672;28;20369;-72
2024/02/29 01:22:35;;;;;;;7.38;4.47;;;;;;;4.37;96.88;100505.16;4988859;28;20440;-72
2024/02/29 01:25:01;;;;;;;5.03;3.47;;;;;;;4.41;96.51;100500.09;4987535;28;20019;-73
2024/02/29 01:27:26;;;;;;;13.82;5.88;;;;;;;4.46;96.44;100503.63;4988655;28;20038;-73
2024/02/29 01:29:52;;;;;;;5.38;4.95;;;;;;;4.46;96.49;100492.47;5003849;28;20027;-74
2024/02/29 01:32:17;;;;;;;5.40;3.97;;;;;;;4.42;96.19;100501.88;4988486;28;20037;-73
2024/02/29 01:34:42;;;;;;;5.13;3.10;;;;;;;4.43;95.94;100490.72;4988742;28;20030;-74
2024/02/29 01:37:08;;;;;;;20.67;4.05;;;;;;;4.46;95.21;100477.06;5003624;28;20054;-72
2024/02/29 01:39:34;;;;;;;10.57;4.50;;;;;;;4.38;94.94;100484.63;4987154;28;20046;-73
2024/02/29 01:42:00;;;;;;;11.27;4.68;;;;;;;4.33;95.42;100483.66;4988862;28;20029;-73
2024/02/29 01:44:27;;;;;;;5.13;3.90;;;;;;;4.35;95.55;100484.56;4970973;28;20019;-74
2024/02/29 01:46:52;;;;;;;13.35;2.78;;;;;;;4.38;95.44;100484.63;4987066;28;20055;-73
2024/02/29 01:49:19;;;;;;;13.43;4.80;;;;;;;4.33;95.45;100469.13;4987157;28;20030;-72
2024/02/29 01:51:45;;;;;;;24.95;5.85;;;;;;;4.38;95.44;100464.06;4988375;28;20022;-74
2024/02/29 01:54:13;;;;;;;8.35;5.97;;;;;;;4.38;95.69;100473.50;4988287;28;20061;-73
2024/02/29 01:56:40;;;;;;;23.38;6.18;;;;;;;4.35;95.55;100469.16;4987272;28;20061;-73
2024/02/29 01:59:06;;;;;;;8.10;3.40;;;;;;;4.35;95.54;100461.44;4988236;28;20023;-72
2024/02/29 02:01:32;;;;;;;6.13;2.35;;;;;;;4.47;94.69;100460.81;4986908;28;20132;-73
2024/02/29 02:03:57;;;;;;;6.82;6.03;;;;;;;4.35;94.49;100461.44;4988052;28;20018;-73
2024/02/29 02:06:22;;;;;;;11.38;5.57;;;;;;;4.36;94.00;100455.44;4987726;28;20179;-72
2024/02/29 02:08:48;;;;;;;5.97;4.50;;;;;;;4.31;94.60;100444.25;4988028;28;20027;-73
2024/02/29 02:11:13;;;;;;;6.95;4.85;;;;;;;4.33;94.29;100439.97;4988176;28;20082;-73
2024/02/29 02:13:39;;;;;;;20.38;3.90;;;;;;;4.33;93.95;100432.25;4987806;28;20023;-73
2024/02/29 02:16:07;;;;;;;4.47;3.88;;;;;;;4.38;93.96;100433.22;4987865;28;20027;-73
2024/02/29 02:18:32;;;;;;;9.63;3.22;;;;;;;4.35;94.17;100430.59;4987585;28;20025;-72
2024/02/29 02:20:57;;;;;;;14.10;6.18;;;;;;;4.35;94.46;100425.44;4987866;28;20027;-73
2024/02/29 02:23:23;;;;;;;10.45;5.82;;;;;;;4.36;93.89;100419.47;4987606;28;20026;-73
2024/02/29 02:25:48;;;;;;;15.55;5.30;;;;;;;4.37;92.88;100408.38;4987655;28;20030;-74
2024/02/29 02:28:14;;;;;;;7.40;4.97;;;;;;;4.28;92.91;100405.63;4987667;28;20049;-74
2024/02/29 02:30:40;;;;;;;14.77;4.13;;;;;;;4.29;93.30;100402.22;4970255;28;20058;-74
2024/02/29 02:33:05;;;;;;;2.15;1.70;;;;;;;4.30;93.37;100401.38;4987652;28;20054;-74
2024/02/29 02:35:33;;;;;;;15.40;5.13;;;;;;;4.25;93.68;100391.00;4986229;28;20033;-73
2024/02/29 02:37:59;;;;;;;9.80;8.77;;;;;;;4.32;93.52;100382.59;4987419;28;20423;-74
2024/02/29 02:40:24;;;;;;;12.85;3.80;;;;;;;4.32;93.49;100385.16;4987237;28;20472;-73
2024/02/29 02:42:50;;;;;;;15.82;8.25;;;;;;;4.34;93.34;100377.47;4987326;28;20053;-74
2024/02/29 02:45:15;;;;;;;16.83;6.82;;;;;;;4.31;93.50;100374.84;4987268;28;20536;-74
2024/02/29 02:47:40;;;;;;;15.40;6.50;;;;;;;4.28;93.93;100377.38;4986727;28;20027;-73
2024/02/29 02:50:06;;;;;;;19.95;8.10;;;;;;;4.31;93.81;100380.81;4987237;28;20023;-73
2024/02/29 02:52:31;;;;;;;14.63;5.60;;;;;;;4.31;94.21;100379.97;4969713;28;20033;-75
2024/02/29 02:54:57;;;;;;;20.67;9.32;;;;;;;4.37;94.78;100374.94;4987188;28;20021;-74
2024/02/29 02:57:22;;;;;;;17.27;10.23;;;;;;;4.34;94.40;100364.63;4986966;28;20049;-73
2024/02/29 02:59:47;;;;;;;5.40;4.82;;;;;;;4.50;93.77;100365.72;4986928;28;20052;-74
2024/02/29 03:02:13;;;;;;;8.00;4.97;;;;;;;4.39;94.14;100367.25;4986913;28;20064;-75
2024/02/29 03:04:38;;;;;;;12.07;4.10;;;;;;;4.30;93.99;100348.28;4987196;28;20031;-74
2024/02/29 03:07:03;;;;;;;3.53;3.03;;;;;;;4.29;94.18;100335.38;4986573;28;20047;-75
2024/02/29 03:09:30;;;;;;;14.95;5.57;;;;;;;4.31;94.50;100333.72;4985595;28;20113;-75
2024/02/29 03:11:55;;;;;;;35.28;12.02;;;;;;;4.40;93.93;100335.56;4969733;28;20042;-75
2024/02/29 03:14:21;;;;;;;17.75;8.30;;;;;;;4.38;94.26;100321.84;4987056;28;20029;-74
2024/02/29 03:16:46;;;;;;;8.90;7.57;;;;;;;4.39;94.02;100303.00;4987059;28;20027;-74
2024/02/29 03:19:11;;;;;;;9.35;5.55;;;;;;;4.41;93.38;100309.03;4986425;28;20034;-74
2024/02/29 03:21:37;;;;;;;15.57;8.73;;;;;;;4.32;94.24;100304.59;4986873;28;20075;-73
2024/02/29 03:24:02;;;;;;;7.82;6.20;;;;;;;4.43;93.17;100299.63;4986752;28;20122;-72
2024/02/29 03:26:28;;;;;;;14.90;6.95;;;;;;;4.43;93.27;100287.63;4986808;28;20026;-73
2024/02/29 03:28:53;;;;;;;17.83;4.03;;;;;;;4.38;92.90;100283.28;5001220;28;20057;-73
2024/02/29 03:31:19;;;;;;;4.72;2.15;;;;;;;4.36;93.72;100283.22;4986559;28;20027;-73
2024/02/29 03:33:44;;;;;;;15.23;8.65;;;;;;;4.19;94.16;100286.41;4986298;28;20034;-74
2024/02/29 03:36:10;;;;;;;23.13;11.75;;;;;;;4.22;94.21;100276.19;4969201;28;20054;-73
2024/02/29 03:38:36;;;;;;;11.23;7.20;;;;;;;4.23;94.57;100269.34;4986347;28;20025;-73
2024/02/29 03:41:01;;;;;;;12.02;6.35;;;;;;;4.18;94.60;100274.41;4986278;28;20034;-73
2024/02/29 03:43:27;;;;;;;7.95;4.85;;;;;;;4.22;94.58;100275.31;4986435;28;20027;-74
2024/02/29 03:45:53;;;;;;;7.55;3.45;;;;;;;4.31;94.07;100277.19;4986220;28;20026;-74
2024/02/29 03:48:18;;;;;;;8.70;5.10;;;;;;;4.27;94.22;100285.66;4985918;28;20034;-75
2024/02/29 03:50:44;;;;;;;11.90;5.45;;;;;;;4.29;93.61;100276.28;4986302;28;20086;-75
2024/02/29 03:53:10;;;;;;;3.78;2.47;;;;;;;4.20;94.34;100275.28;4986178;28;20026;-75
2024/02/29 03:55:36;;;;;;;11.55;7.60;;;;;;;4.26;93.80;100271.09;4986359;28;20027;-75
2024/02/29 03:58:01;;;;;;;7.70;4.53;;;;;;;4.29;93.17;100269.44;4984960;28;20054;-74
2024/02/29 04:00:26;;;;;;;18.27;7.05;;;;;;;4.28;93.21;100267.69;4985915;28;20027;-74
2024/02/29 04:02:51;;;;;;;9.25;5.68;;;;;;;4.21;93.35;100273.59;4985950;28;20121;-74
2024/02/29 04:05:17;;;;;;;9.63;4.05;;;;;;;4.25;93.18;100271.94;4986283;28;20022;-73
2024/02/29 04:07:42;;;;;;;10.13;5.15;;;;;;;4.17;93.29;100295.78;4968207;28;20106;-72
2024/02/29 04:10:08;;;;;;;8.68;6.05;;;;;;;4.19;93.43;100267.56;4968978;28;20095;-73
2024/02/29 04:12:34;;;;;;;9.27;5.65;;;;;;;4.27;93.33;100271.13;4984906;28;20126;-74
2024/02/29 04:15:03;;;;;;;5.22;4.55;;;;;;;4.33;93.02;100266.06;4986011;28;20109;-73
2024/02/29 04:17:31;;;;;;;5.07;4.20;;;;;;;4.34;92.81;100248.94;4985956;28;20106;-73
2024/02/29 04:19:57;;;;;;;10.10;5.60;;;;;;;4.26;93.02;100255.69;4974522;28;20026;-74
2024/02/29 04:22:23;;;;;;;17.55;6.80;;;;;;;4.27;92.67;100250.56;4992530;28;20034;-75
2024/02/29 04:24:48;;;;;;;19.00;6.75;;;;;;;4.26;92.92;100246.28;4991338;28;20037;-73
2024/02/29 04:27:14;;;;;;;8.68;6.68;;;;;;;4.33;92.37;100239.50;4992516;28;20114;-74
2024/02/29 04:29:39;;;;;;;7.35;5.05;;;;;;;4.32;92.83;100243.78;4992343;28;20125;-73
2024/02/29 04:32:04;;;;;;;8.85;4.45;;;;;;;4.31;92.97;100230.91;4992173;28;20023;-73
2024/02/29 04:34:30;;;;;;;11.70;6.00;;;;;;;4.32;92.82;100224.91;4992282;28;20530;-73
2024/02/29 04:36:55;;;;;;;12.18;4.57;;;;;;;4.45;91.82;100228.53;4992349;28;20050;-73
2024/02/29 04:39:21;;;;;;;3.88;2.70;;;;;;;4.31;92.26;100226.63;4992228;28;20053;-73
2024/02/29 04:41:46;;;;;;;10.45;4.88;;;;;;;4.35;92.87;100230.09;4992225;28;20034;-72
2024/02/29 04:44:11;;;;;;;4.05;2.60;;;;;;;4.45;92.16;100224.25;4992289;28;20027;-75
2024/02/29 04:46:37;;;;;;;21.00;4.65;;;;;;;4.46;91.38;100212.25;4992104;28;20058;-73
2024/02/29 04:49:02;;;;;;;1.23;1.05;;;;;;;4.50;91.77;100220.88;4992045;28;20030;-74
2024/02/29 04:51:28;;;;;;;3.53;2.50;;;;;;;4.59;90.40;100203.00;4992231;28;20471;-74
2024/02/29 04:53:53;;;;;;;4.15;3.63;;;;;;;4.43;90.98;100205.38;4991984;28;20037;-74
2024/02/29 04:56:18;;;;;;;5.32;4.82;;;;;;;4.47;91.45;100207.13;4992097;28;20456;-75
2024/02/29 04:58:44;;;;;;;10.93;5.75;;;;;;;4.53;90.87;100205.50;4990745;28;20030;-74
2024/02/29 05:01:09;;;;;;;8.65;4.00;;;;;;;4.35;91.48;100178.69;4991974;28;20027;-71
2024/02/29 05:03:35;;;;;;;12.80;5.28;;;;;;;4.65;89.78;100195.38;5006791;28;20087;-72
2024/02/29 05:06:00;;;;;;;4.97;3.45;;;;;;;4.49;90.50;100183.19;5006632;28;20050;-74
2024/02/29 05:08:25;;;;;;;8.07;5.05;;;;;;;4.50;90.60;100200.31;4991816;28;20031;-72
2024/02/29 05:10:51;;;;;;;15.20;5.70;;;;;;;4.52;90.64;100203.78;4990820;28;20027;-74
2024/02/29 05:13:18;;;;;;;6.88;4.53;;;;;;;4.47;90.90;100202.00;4992129;28;20038;-73
2024/02/29 05:15:43;;;;;;;4.22;3.38;;;;;;;4.49;90.90;100194.31;4992098;28;20033;-74
2024/02/29 05:18:09;;;;;;;6.63;5.03;;;;;;;4.53;90.41;100198.66;4991540;28;20027;-75
2024/02/29 05:20:35;;;;;;;8.13;5.78;;;;;;;4.43;90.98;100187.38;4991941;28;20027;-72
2024/02/29 05:23:00;;;;;;;9.68;6.22;;;;;;;4.44;91.52;100185.69;4991778;28;20037;-72
2024/02/29 05:25:28;;;;;;;9.02;5.22;;;;;;;4.51;91.29;100191.75;4990670;28;20023;-73
2024/02/29 05:27:53;;;;;;;10.13;6.35;;;;;;;4.45;91.44;100180.56;4973999;28;20053;-72
2024/02/29 05:30:19;;;;;;;1.67;1.58;;;;;;;4.44;91.55;100185.69;4990120;28;20069;-73
2024/02/29 05:32:44;;;;;;;9.18;4.78;;;;;;;4.50;91.35;100187.47;4988653;28;20045;-74
2024/02/29 05:35:10;;;;;;;10.68;5.00;;;;;;;4.56;90.79;100179.81;4988525;28;20116;-74
2024/02/29 05:37:36;;;;;;;7.05;5.13;;;;;;;4.53;91.02;100165.25;4987623;28;20467;-76
2024/02/29 05:40:05;;;;;;;6.05;4.50;;;;;;;4.55;90.75;100160.94;4988647;28;20082;-74
2024/02/29 05:42:30;;;;;;;12.38;5.80;;;;;;;4.57;90.66;100168.69;4988846;28;20023;-71
2024/02/29 05:44:56;;;;;;;11.25;6.20;;;;;;;4.52;90.87;100165.22;4987600;28;20034;-74
2024/02/29 05:47:21;;;;;;;9.65;4.15;;;;;;;4.57;90.60;100182.41;4988234;28;20083;-73
2024/02/29 05:49:46;;;;;;;8.48;4.50;;;;;;;4.56;90.60;100169.53;4988529;28;20023;-75
2024/02/29 05:52:12;;;;;;;8.23;4.13;;;;;;;4.68;89.82;100179.97;4988449;28;20022;-73
2024/02/29 05:54:37;;;;;;;6.50;3.75;;;;;;;4.61;89.95;100161.88;4988271;28;20095;-76
2024/02/29 05:57:04;;;;;;;6.10;4.95;;;;;;;4.56;90.05;100159.25;4988442;28;20018;-73
2024/02/29 05:59:30;;;;;;;13.60;6.63;;;;;;;4.57;89.82;100155.81;4988563;28;20117;-73
2024/02/29 06:01:56;;;;;;;15.35;7.53;;;;;;;4.51;89.38;100148.91;4988356;28;20026;-73
2024/02/29 06:04:21;;;;;;;14.07;5.18;;;;;;;4.54;89.81;100145.50;4986408;28;20056;-73
2024/02/29 06:06:47;;;;;;;16.23;6.78;;;;;;;4.57;89.83;100149.00;5002969;28;20554;-74
2024/02/29 06:09:14;;;;;;;11.20;7.10;;;;;;;4.47;90.05;100148.00;4987892;28;20031;-74
2024/02/29 06:11:40;;;;;;;7.07;6.35;;;;;;;4.45;89.94;100121.44;4988401;28;20027;-75
2024/02/29 06:14:06;;;;;;;8.90;4.80;;;;;;;4.55;89.48;100152.41;4970367;28;20114;-74
2024/02/29 06:16:31;;;;;;;10.20;6.18;;;;;;;4.53;89.01;100142.09;4970642;28;20037;-75
2024/02/29 06:18:57;;;;;;;6.75;4.18;;;;;;;4.44;89.46;100131.69;4987919;28;20042;-74
2024/02/29 06:21:22;;;;;;;16.13;7.30;;;;;;;4.43;89.66;100125.69;4987889;28;20030;-74
2024/02/29 06:23:48;;;;;;;4.38;4.07;;;;;;;4.52;88.52;100124.91;4987821;28;20027;-73
2024/02/29 06:26:14;;;;;;;6.32;3.22;;;;;;;4.41;88.96;100114.50;4987918;28;20030;-74
2024/02/29 06:28:39;;;;;;;10.45;7.03;;;;;;;4.40;89.32;100120.50;4987701;28;20030;-74
2024/02/29 06:31:05;;;;;;;11.43;5.45;;;;;;;4.32;89.59;100116.97;4986722;28;20124;-72
2024/02/29 06:33:30;;;;;;;13.25;9.48;;;;;;;4.33;89.71;100128.97;4987675;28;20023;-73
2024/02/29 06:35:56;;;;;;;25.58;7.88;;;;;;;4.41;88.91;100111.94;4987787;28;20542;-72
2024/02/29 06:38:21;;;;;;;13.60;8.20;;;;;;;4.37;89.13;100107.63;4987790;28;20500;-72
2024/02/29 06:40:47;;;;;;;9.93;6.70;;;;;;;4.44;88.92;100106.00;4987368;28;20523;-74
2024/02/29 06:43:12;;;;;;;9.93;8.70;;;;;;;4.39;88.84;100100.81;4986175;28;20476;-74
2024/02/29 06:45:44;;;;;;;10.90;5.53;;;;;;;4.32;88.90;100093.84;4992691;28;20023;-71
2024/02/29 06:48:10;;;;;;;5.97;5.05;;;;;;;4.37;89.00;100101.59;4995510;28;20026;-73
2024/02/29 06:50:35;;;;;;;8.50;5.55;;;;;;;4.27;89.38;100096.38;4977318;28;20031;-72
2024/02/29 06:53:00;;;;;;;13.77;5.80;;;;;;;4.45;88.84;100095.72;4988045;28;20031;-73
2024/02/29 06:55:25;;;;;;;14.63;7.18;;;;;;;4.33;88.75;100085.28;4987506;28;20030;-73
2024/02/29 06:57:51;;;;;;;9.15;6.65;;;;;;;4.40;88.86;100091.38;4987113;28;20036;-72
2024/02/29 07:00:17;;;;;;;16.80;6.22;;;;;;;4.36;89.27;100074.19;4987495;28;20530;-73
2024/02/29 07:02:42;;;;;;;4.55;3.50;;;;;;;4.42;88.49;100070.00;5002188;28;20026;-72
2024/02/29 07:05:08;;;;;;;6.93;4.38;;;;;;;4.41;88.90;100077.69;4987321;28;20077;-73
2024/02/29 07:07:33;;;;;;;9.93;3.90;;;;;;;4.70;86.73;100084.84;4969764;28;20030;-72
2024/02/29 07:09:59;;;;;;;9.48;6.20;;;;;;;4.82;84.57;100063.53;4987174;28;20406;-70
2024/02/29 07:12:24;;;;;;;14.18;9.98;;;;;;;4.53;86.51;100074.38;4987106;28;20034;-71
2024/02/29 07:14:50;;;;;;;8.25;7.40;;;;;;;4.53;86.50;100061.53;4987094;28;20023;-71
2024/02/29 07:17:16;;;;;;;16.90;7.32;;;;;;;4.51;86.56;100070.91;4986852;28;20019;-70
2024/02/29 07:19:41;;;;;;;11.13;6.82;;;;;;;4.46;87.15;100071.75;4986889;28;20508;-72
2024/02/29 07:22:07;;;;;;;12.52;5.22;;;;;;;4.58;86.70;100072.72;4986968;28;20341;-71
2024/02/29 07:24:33;;;;;;;10.55;6.13;;;;;;;4.64;85.57;100054.78;4987193;28;20019;-72
2024/02/29 07:26:58;;;;;;;13.57;5.30;;;;;;;4.64;85.99;100064.19;4986890;28;20053;-71
2024/02/29 07:29:23;;;;;;;8.82;5.35;;;;;;;4.68;85.76;100050.56;4986760;28;20391;-71
2024/02/29 07:31:49;;;;;;;10.88;6.18;;;;;;;4.58;86.42;100054.72;4985476;28;20364;-72
2024/02/29 07:34:17;;;;;;;21.05;10.10;;;;;;;4.72;85.13;100047.16;4986468;28;20033;-71
2024/02/29 07:36:43;;;;;;;3.42;2.83;;;;;;;4.76;85.17;100053.19;4986628;28;20133;-72
2024/02/29 07:39:11;;;;;;;11.65;8.30;;;;;;;4.70;84.09;100043.69;4986353;28;20023;-71
2024/02/29 07:41:37;;;;;;;8.43;4.82;;;;;;;4.77;84.23;100047.19;4986660;28;20049;-71
2024/02/29 07:44:02;;;;;;;5.68;4.18;;;;;;;4.64;84.96;100044.50;4985243;28;20026;-70
2024/02/29 07:46:28;;;;;;;11.45;6.65;;;;;;;5.10;82.14;100048.34;4985275;28;20038;-70
2024/02/29 07:48:53;;;;;;;9.77;5.45;;;;;;;4.79;83.62;100042.94;4985914;28;20062;-71
2024/02/29 07:51:18;;;;;;;12.05;6.50;;;;;;;4.72;84.70;100047.16;4969292;28;20023;-70
2024/02/29 07:53:44;;;;;;;3.10;2.42;;;;;;;4.77;84.68;100044.63;4985660;28;20029;-71
2024/02/29 07:56:09;;;;;;;12.00;6.95;;;;;;;4.82;84.36;100033.50;4986383;28;20471;-70
2024/02/29 07:58:35;;;;;;;12.63;7.60;;;;;;;4.87;83.04;100025.00;4986341;28;20159;-71
2024/02/29 08:01:00;;;;;;;7.90;7.03;;;;;;;5.03;81.52;100020.84;5001132;28;20090;-71
2024/02/29 08:03:26;;;;;;;13.05;7.05;;;;;;;4.93;82.17;100025.03;4986197;28;20181;-72
2024/02/29 08:05:51;;;;;;;13.05;5.82;;;;;;;4.87;82.81;100043.88;4986071;28;20118;-71
2024/02/29 08:08:16;;;;;;;8.68;5.03;;;;;;;4.94;81.75;100009.63;4986200;28;20034;-71
2024/02/29 08:10:43;;;;;;;10.27;5.97;;;;;;;5.03;81.26;100015.69;4968887;28;20023;-71
2024/02/29 08:13:08;;;;;;;18.58;5.90;;;;;;;5.11;79.61;100016.63;4986244;28;20073;-71
2024/02/29 08:15:34;;;;;;;20.08;8.45;;;;;;;5.05;79.99;100013.97;4985035;28;20419;-71
2024/02/29 08:18:00;;;;;;;25.65;8.23;;;;;;;5.14;79.04;100005.50;4985654;28;20050;-70
2024/02/29 08:20:25;;;;;;;9.77;6.15;;;;;;;5.28;76.65;100008.16;4984957;28;20077;-71
2024/02/29 08:22:56;;;;;;;8.68;5.93;;;;;;;5.04;78.22;100012.28;4986231;28;20081;-71
2024/02/29 08:25:22;;;;;;;5.78;4.22;;;;;;;5.28;77.43;100009.03;4984707;28;20107;-69
2024/02/29 08:27:48;;;;;;;12.68;5.75;;;;;;;5.20;76.25;100008.97;4986086;28;20023;-71
2024/02/29 08:30:13;;;;;;;7.13;4.40;;;;;;;5.04;77.18;99999.41;4986018;28;20093;-71
2024/02/29 08:32:39;;;;;;;14.32;4.57;;;;;;;5.09;77.03;100005.47;4985995;28;20151;-71
2024/02/29 08:35:07;;;;;;;15.23;6.80;;;;;;;5.09;77.10;100002.88;4986183;28;20034;-72
2024/02/29 08:37:32;;;;;;;4.88;3.35;;;;;;;5.07;76.93;99997.72;4986011;28;20058;-72
2024/02/29 08:39:58;;;;;;;11.63;5.40;;;;;;;5.06;77.11;100002.88;4985986;28;20030;-72
2024/02/29 08:42:23;;;;;;;7.10;4.38;;;;;;;5.09;76.49;99995.16;4985993;28;20472;-72
2024/02/29 08:44:50;;;;;;;12.73;7.55;;;;;;;5.10;75.97;100007.16;4985959;28;20023;-72
2024/02/29 08:47:15;;;;;;;7.55;3.17;;;;;;;4.94;76.52;100001.03;4985817;28;20049;-71
2024/02/29 08:49:41;;;;;;;16.67;7.57;;;;;;;4.86;77.54;100003.53;5000597;28;20117;-70
2024/02/29 08:52:07;;;;;;;6.93;4.43;;;;;;;4.74;78.00;99990.59;4985817;28;20058;-70
2024/02/29 08:54:34;;;;;;;6.47;5.28;;;;;;;4.81;78.17;100000.94;4968362;28;20031;-71
2024/02/29 08:57:03;;;;;;;15.50;7.45;;;;;;;4.77;78.20;100008.63;4985820;28;20051;-71
2024/02/29 08:59:28;;;;;;;12.90;5.43;;;;;;;4.84;77.87;99970.09;4985553;28;20058;-72
2024/02/29 09:01:54;;;;;;;9.35;4.60;;;;;;;4.75;77.57;100002.59;4985752;28;20023;-73
2024/02/29 09:04:19;;;;;;;9.63;3.83;;;;;;;4.47;78.55;99986.06;4986155;28;20023;-74
2024/02/29 09:06:45;;;;;;;3.65;3.15;;;;;;;4.46;79.27;99983.47;4968521;29;20471;-75
2024/02/29 09:09:11;;;;;;;1.73;1.63;;;;;;;4.39;79.61;99977.44;4970035;28;20087;-76
2024/02/29 09:11:36;;;;;;;11.40;6.70;;;;;;;4.25;80.09;99989.25;4969124;29;20099;-75
2024/02/29 09:14:03;;;;;;;5.60;2.97;;;;;;;4.28;80.76;99976.44;4970162;28;20023;-74
2024/02/29 09:16:28;;;;;;;19.05;7.07;;;;;;;4.21;80.94;99981.53;4969899;28;20031;-76
2024/02/29 09:18:54;;;;;;;12.52;3.50;;;;;;;4.29;80.65;99988.44;4969581;28;20030;-75
2024/02/29 09:21:19;;;;;;;9.50;3.88;;;;;;;4.17;81.58;99973.78;4969769;28;20019;-73
2024/02/29 09:23:44;;;;;;;3.38;2.47;;;;;;;4.20;81.91;99971.22;4969870;28;20325;-73
2024/02/29 09:26:12;;;;;;;9.68;5.43;;;;;;;4.13;82.27;99980.56;4969609;28;20066;-73
2024/02/29 09:28:38;;;;;;;16.02;6.35;;;;;;;4.26;82.14;99996.13;4969574;28;20025;-73
2024/02/29 09:31:03;;;;;;;8.10;7.00;;;;;;;4.19;82.42;99975.50;4969651;28;20063;-70
2024/02/29 09:33:29;;;;;;;12.75;4.45;;;;;;;4.00;83.19;99983.81;4969294;28;20495;-74
2024/02/29 09:35:57;;;;;;;6.65;2.70;;;;;;;4.13;83.74;99967.72;4969641;28;20094;-72
2024/02/29 09:38:24;;;;;;;4.55;1.42;;;;;;;4.03;83.56;99971.03;4969233;28;20088;-72
2024/02/29 09:40:50;;;;;;;6.85;4.63;;;;;;;3.88;85.16;99976.84;5000424;28;20073;-70
2024/02/29 09:43:16;;;;;;;8.95;3.45;;;;;;;3.86;86.05;99981.97;4969287;28;20055;-69
2024/02/29 09:45:42;;;;;;;13.90;5.70;;;;;;;3.83;86.00;99972.50;4967818;28;20050;-69
2024/02/29 09:48:10;;;;;;;9.32;5.30;;;;;;;3.88;85.84;99988.00;4967453;28;20027;-69
2024/02/29 09:50:36;;;;;;;1.77;1.48;;;;;;;3.81;86.63;99996.44;5000421;28;20054;-68
2024/02/29 09:53:01;;;;;;;8.40;5.60;;;;;;;3.83;86.77;99981.94;4969177;28;20035;-69
2024/02/29 09:55:30;;;;;;;5.65;3.35;;;;;;;3.97;86.05;99988.09;4969121;28;20441;-70
2024/02/29 09:57:58;;;;;;;6.68;3.83;;;;;;;3.91;85.91;99990.59;4968946;28;20023;-71
2024/02/29 10:00:25;;;;;;;4.53;4.03;;;;;;;3.86;86.52;99992.25;4967508;28;20107;-71
2024/02/29 10:02:51;;;;;;;3.17;2.97;;;;;;;3.86;86.61;99996.50;4967302;28;20666;-74
2024/02/29 10:05:17;;;;;;;1.83;1.73;;;;;;;3.71;87.59;99993.78;4969423;28;20027;-78
2024/02/29 10:07:47;;;;;;;4.57;3.30;;;;;;;3.81;87.43;99994.75;4967536;28;20480;-75
2024/02/29 10:10:16;;;;;;;9.30;6.70;;;;;;;3.62;88.14;99983.38;4967566;28;20032;-71
2024/02/29 10:12:43;;;;;;;2.95;2.63;;;;;;;3.75;88.22;99989.53;4969043;28;20031;-71
2024/02/29 10:15:12;;;;;;;28.83;4.22;;;;;;;3.74;88.35;99992.09;4968853;28;20019;-72
2024/02/29 10:17:41;;;;;;;26.30;6.68;;;;;;;3.63;89.09;99987.66;4967916;28;20023;-68
2024/02/29 10:20:07;;;;;;;13.63;3.83;;;;;;;3.74;89.17;99985.22;4999819;28;20027;-68
2024/02/29 10:22:32;;;;;;;6.03;3.95;;;;;;;3.68;88.87;99970.63;4968571;28;20095;-67
2024/02/29 10:24:58;;;;;;;4.57;3.60;;;;;;;3.83;89.21;99974.22;4968779;28;20079;-67
2024/02/29 10:27:23;;;;;;;0.50;0.50;;;;;;;3.72;89.49;99964.69;4968505;28;20024;-66
2024/02/29 10:29:49;;;;;;;0.60;0.60;;;;;;;3.96;88.79;99976.09;4999590;28;20062;-67
2024/02/29 10:32:15;;;;;;;2.55;2.45;;;;;;;3.97;88.68;99952.16;4968503;28;20050;-66
2024/02/29 10:34:41;;;;;;;0.65;0.65;;;;;;;3.69;89.12;99954.38;4966972;28;20028;-67
2024/02/29 10:37:06;;;;;;;1.67;1.63;;;;;;;3.64;90.34;99957.72;4968507;28;20082;-67
2024/02/29 10:39:33;;;;;;;1.15;1.15;;;;;;;3.76;89.95;99954.44;4968459;28;20071;-67
2024/02/29 10:42:00;;;;;;;0.40;0.40;;;;;;;3.89;89.31;99971.75;4999523;28;20051;-66
2024/02/29 10:44:30;;;;;;;0.50;0.50;;;;;;;3.80;89.32;99963.94;4968326;28;20050;-67
2024/02/29 10:47:02;;;;;;;1.17;1.17;;;;;;;3.59;91.06;99947.41;4968241;28;20027;-67
2024/02/29 10:49:35;;;;;;;0.70;0.70;;;;;;;3.99;88.94;99982.13;4999041;28;20063;-68
2024/02/29 10:52:26;;;;;;;1.95;1.85;;;;;;;3.72;90.26;99945.84;4968425;28;20049;-69
2024/02/29 10:55:06;;;;;;;1.03;1.03;;;;;;;3.74;90.18;99956.16;4968134;28;20106;-68
2024/02/29 10:57:40;;;;;;;0.50;0.50;;;;;;;3.75;90.07;99942.47;4966731;28;20296;-68
2024/02/29 11:00:07;;;;;;;0.98;0.98;;;;;;;3.75;89.76;99945.03;4999109;28;20118;-68
2024/02/29 11:02:32;;;;;;;0.60;0.60;;;;;;;3.73;89.69;99952.72;4998925;28;20126;-67
2024/02/29 11:04:58;;;;;;;1.52;1.50;;;;;;;3.67;90.08;99945.81;4968064;28;20428;-68
2024/02/29 11:07:24;;;;;;;0.65;0.65;;;;;;;3.99;88.81;99941.03;4983026;28;20070;-69
2024/02/29 11:09:50;;;;;;;0.85;0.85;;;;;;;3.56;91.36;99943.06;4987167;28;20034;-69
2024/02/29 11:12:17;;;;;;;0.50;0.50;;;;;;;3.57;91.93;99925.97;4987175;28;20086;-67
2024/02/29 11:14:44;;;;;;;0.50;0.50;;;;;;;3.56;92.70;99937.94;4985604;28;20026;-68
2024/02/29 11:17:13;;;;;;;1.83;1.73;;;;;;;3.55;92.81;99935.34;4986897;28;20078;-67
2024/02/29 11:19:38;;;;;;;0.60;0.60;;;;;;;3.63;93.23;99938.00;4986818;28;20023;-67
2024/02/29 11:22:08;;;;;;;0.85;0.85;;;;;;;3.93;90.38;99940.09;4987016;28;20029;-69
2024/02/29 11:24:34;;;;;;;0.60;0.60;;;;;;;3.72;92.29;99944.13;5001740;28;20035;-68
2024/02/29 11:27:00;;;;;;;0.60;0.60;;;;;;;3.80;91.95;99935.69;4986829;28;20026;-69